Time;durP1;ratioP1;P1;durP2;ratioP2;P2;SDS_P1;SDS_P2;PMS_P1;PMS_P2;Temp;Humidity;BMP_temperature;BMP_pressure;BME280_temperature;BME280_humidity;BME280_pressure;Samples;Min_cycle;Max_cycle;Signal;HPM_P1;HPM_P2
2022/09/04 00:01:22;;;;;;;11.05;9.95;;;;;;;17.44;67.23;95300.78;4998161;28;20231;-66
2022/09/04 00:03:48;;;;;;;13.57;9.80;;;;;;;17.36;67.52;95299.88;5002726;28;20266;-68
2022/09/04 00:06:19;;;;;;;11.70;10.38;;;;;;;17.44;67.46;95304.25;5008776;28;20207;-63
2022/09/04 00:09:22;;;;;;;10.80;9.80;;;;;;;17.45;67.25;95305.88;5009372;28;20281;-63
2022/09/04 00:12:09;;;;;;;11.68;9.20;;;;;;;17.43;67.45;95305.28;4946878;28;20219;-63
2022/09/04 00:14:57;;;;;;;10.90;9.95;;;;;;;17.49;66.94;95304.50;4951208;28;20227;-67
2022/09/04 00:17:55;;;;;;;11.55;10.13;;;;;;;17.38;67.11;95299.69;4963451;28;20212;-66
2022/09/04 00:20:51;;;;;;;11.25;10.15;;;;;;;17.41;66.91;95312.59;4944953;28;20213;-67
2022/09/04 00:23:30;;;;;;;10.60;9.60;;;;;;;17.23;67.77;95307.69;4963158;28;20262;-67
2022/09/04 00:26:17;;;;;;;13.18;9.65;;;;;;;17.29;67.76;95306.91;4952957;28;20918;-67
2022/09/04 00:28:49;;;;;;;10.20;9.15;;;;;;;17.28;67.72;95305.28;4952484;28;20223;-61
2022/09/04 00:31:18;;;;;;;10.68;9.57;;;;;;;17.16;67.85;95318.25;4950146;28;20252;-68
2022/09/04 00:34:06;;;;;;;12.25;9.77;;;;;;;17.17;67.99;95319.88;4964129;28;20212;-67
2022/09/04 00:36:35;;;;;;;11.25;10.20;;;;;;;17.23;67.13;95317.50;4949768;28;20229;-63
2022/09/04 00:39:09;;;;;;;10.32;9.35;;;;;;;17.05;68.05;95318.69;4965297;28;20218;-66
2022/09/04 00:41:47;;;;;;;11.65;9.20;;;;;;;17.10;67.76;95318.13;4969019;28;20587;-66
2022/09/04 00:44:34;;;;;;;10.57;8.90;;;;;;;17.17;67.40;95313.75;5007992;28;20214;-67
2022/09/04 00:47:26;;;;;;;10.82;9.32;;;;;;;17.26;67.17;95312.63;5008170;28;20214;-67
2022/09/04 00:49:58;;;;;;;10.82;9.23;;;;;;;17.15;67.42;95316.56;4949380;28;20315;-65
2022/09/04 00:53:09;;;;;;;10.57;9.48;;;;;;;17.05;67.89;95310.72;4965743;28;20251;-68
2022/09/04 00:55:52;;;;;;;10.93;9.90;;;;;;;17.05;67.93;95310.72;4950050;28;20215;-69
2022/09/04 00:58:33;;;;;;;10.05;9.15;;;;;;;17.01;67.74;95314.75;4950004;28;20258;-66
2022/09/04 01:00:59;;;;;;;10.43;9.43;;;;;;;17.03;67.89;95311.94;4966435;28;20216;-67
2022/09/04 01:03:42;;;;;;;10.10;9.20;;;;;;;16.90;67.78;95309.91;4964322;28;20223;-67
2022/09/04 01:06:28;;;;;;;10.63;9.73;;;;;;;16.83;68.49;95303.69;4965111;28;20353;-67
2022/09/04 01:09:14;;;;;;;10.80;9.73;;;;;;;16.75;68.89;95305.38;4965164;28;20709;-66
2022/09/04 01:12:07;;;;;;;10.05;9.15;;;;;;;16.84;68.30;95319.44;4964949;28;20235;-67
2022/09/04 01:14:54;;;;;;;10.18;9.18;;;;;;;16.70;68.75;95312.25;4948174;28;20615;-65
2022/09/04 01:17:22;;;;;;;10.30;9.30;;;;;;;16.74;68.81;95309.06;4949974;28;20767;-69
2022/09/04 01:20:11;;;;;;;10.63;9.63;;;;;;;16.85;68.66;95314.94;4963367;28;20220;-68
2022/09/04 01:22:50;;;;;;;11.18;10.27;;;;;;;16.83;68.57;95320.44;4952944;28;20236;-67
2022/09/04 01:25:46;;;;;;;11.48;10.38;;;;;;;16.53;69.75;95316.91;4966616;28;20243;-63
2022/09/04 01:28:49;;;;;;;10.88;9.98;;;;;;;16.71;69.33;95314.72;4986947;28;20243;-67
2022/09/04 01:31:30;;;;;;;11.73;10.45;;;;;;;16.72;69.12;95311.06;4990472;28;20215;-68
2022/09/04 01:34:17;;;;;;;11.35;10.07;;;;;;;16.65;69.41;95304.84;4991681;28;20548;-67
2022/09/04 01:36:55;;;;;;;11.00;10.00;;;;;;;16.68;69.36;95303.63;4992234;28;20297;-68
2022/09/04 01:39:23;;;;;;;12.20;10.38;;;;;;;16.62;69.64;95294.56;4989658;28;20222;-62
2022/09/04 01:44:52;;;;;;;11.85;10.65;;;;;;;16.60;69.50;95296.59;4985515;28;20246;-67
2022/09/04 01:47:49;;;;;;;11.00;10.00;;;;;;;16.62;69.25;95291.91;4989971;28;20298;-69
2022/09/04 01:50:21;;;;;;;10.43;9.43;;;;;;;16.71;68.71;95288.19;4986213;28;20218;-63
2022/09/04 01:53:05;;;;;;;10.00;9.20;;;;;;;16.48;69.55;95292.72;4989426;28;20196;-62
2022/09/04 01:55:46;;;;;;;11.10;9.95;;;;;;;16.55;69.48;95293.66;4989054;28;20207;-67
2022/09/04 01:58:44;;;;;;;10.90;9.80;;;;;;;16.72;68.57;95297.78;4994381;28;20210;-69
2022/09/04 02:01:37;;;;;;;11.57;10.32;;;;;;;16.80;67.79;95294.25;4989626;28;20212;-63
2022/09/04 02:04:23;;;;;;;15.25;10.25;;;;;;;16.70;67.89;95289.16;4990252;28;20219;-67
2022/09/04 02:06:58;;;;;;;12.18;10.98;;;;;;;16.78;68.02;95292.78;4993833;28;20203;-67
2022/09/04 02:09:36;;;;;;;11.25;10.05;;;;;;;16.62;68.48;95297.22;4984313;28;20294;-66
2022/09/04 02:12:41;;;;;;;10.93;10.02;;;;;;;16.50;68.70;95288.91;4988804;28;20305;-67
2022/09/04 02:15:41;;;;;;;10.25;9.32;;;;;;;16.50;69.20;95286.25;4966964;28;20227;-68
2022/09/04 02:18:22;;;;;;;11.27;10.27;;;;;;;16.38;69.43;95289.50;4928690;29;20387;-68
2022/09/04 02:21:13;;;;;;;10.50;9.60;;;;;;;16.35;69.50;95290.69;4947936;28;20288;-67
2022/09/04 02:23:50;;;;;;;10.75;9.77;;;;;;;16.06;70.82;95296.75;4929345;29;20232;-68
2022/09/04 02:26:32;;;;;;;11.70;10.63;;;;;;;16.20;70.01;95288.03;4925631;29;20256;-67
2022/09/04 02:29:04;;;;;;;12.55;11.02;;;;;;;16.16;70.39;95285.91;4938262;29;20221;-67
2022/09/04 02:31:39;;;;;;;10.98;10.07;;;;;;;16.26;70.10;95282.00;4943212;29;20264;-66
2022/09/04 02:34:08;;;;;;;10.63;9.63;;;;;;;16.21;70.04;95272.94;4944128;28;20237;-68
2022/09/04 02:36:54;;;;;;;12.45;10.40;;;;;;;16.04;70.79;95281.03;4931782;28;20224;-62
2022/09/04 02:39:33;;;;;;;12.10;11.00;;;;;;;16.03;70.80;95267.94;4939623;28;20220;-66
2022/09/04 02:42:09;;;;;;;11.23;10.13;;;;;;;16.02;70.78;95274.25;4941958;29;20220;-69
2022/09/04 02:44:56;;;;;;;10.98;9.88;;;;;;;15.90;71.59;95276.50;4951125;28;20208;-69
2022/09/04 02:47:30;;;;;;;11.85;9.60;;;;;;;15.71;72.72;95284.94;4946941;29;20217;-68
2022/09/04 02:50:33;;;;;;;10.52;9.63;;;;;;;16.00;71.23;95295.66;4947838;28;20212;-63
2022/09/04 02:53:25;;;;;;;11.23;9.85;;;;;;;16.24;69.88;95288.50;4914979;29;20228;-67
2022/09/04 02:56:09;;;;;;;12.13;10.93;;;;;;;16.26;69.06;95292.59;4981670;28;20281;-69
2022/09/04 02:58:53;;;;;;;10.73;9.73;;;;;;;15.97;69.76;95296.00;4983460;28;20215;-67
2022/09/04 03:01:23;;;;;;;10.60;9.70;;;;;;;15.59;71.78;95297.75;4988489;28;20292;-64
2022/09/04 03:04:01;;;;;;;11.13;10.13;;;;;;;15.86;71.27;95299.09;4989772;28;20261;-62
2022/09/04 03:06:48;;;;;;;11.63;10.60;;;;;;;15.98;70.76;95297.66;4988899;28;20238;-69
2022/09/04 03:09:31;;;;;;;10.57;9.57;;;;;;;15.79;70.87;95301.59;4988850;28;20793;-67
2022/09/04 03:12:25;;;;;;;10.38;9.38;;;;;;;15.79;70.65;95298.94;4990130;28;20471;-68
2022/09/04 03:15:16;;;;;;;10.07;9.27;;;;;;;15.57;71.96;95305.88;4984783;28;20255;-68
2022/09/04 03:17:53;;;;;;;11.15;10.15;;;;;;;15.61;72.15;95309.00;4984935;28;20218;-67
2022/09/04 03:20:27;;;;;;;11.07;9.98;;;;;;;15.77;71.43;95308.09;4979474;28;20203;-68
2022/09/04 03:23:09;;;;;;;10.50;9.40;;;;;;;15.84;71.07;95309.84;5007756;28;20250;-67
2022/09/04 03:26:13;;;;;;;10.68;9.70;;;;;;;15.75;71.08;95302.97;5010882;28;20569;-67
2022/09/04 03:28:59;;;;;;;10.63;9.60;;;;;;;15.81;70.79;95302.25;5007487;28;20222;-62
2022/09/04 03:31:40;;;;;;;10.48;9.48;;;;;;;15.79;70.64;95304.25;5017551;28;20226;-69
2022/09/04 03:34:47;;;;;;;10.50;9.50;;;;;;;15.82;70.27;95298.63;5000965;28;20237;-67
2022/09/04 03:37:39;;;;;;;13.07;10.02;;;;;;;15.83;70.22;95308.22;5005151;28;20348;-69
2022/09/04 03:40:24;;;;;;;11.70;10.57;;;;;;;15.86;69.67;95302.56;5005950;28;20233;-68
2022/09/04 03:42:56;;;;;;;11.48;9.32;;;;;;;15.85;69.41;95315.97;5004773;28;20203;-63
2022/09/04 03:45:36;;;;;;;10.38;9.32;;;;;;;15.78;70.09;95318.53;5004587;28;20257;-66
2022/09/04 03:48:23;;;;;;;9.73;8.93;;;;;;;15.81;70.07;95315.53;5001207;28;20602;-67
2022/09/04 03:51:12;;;;;;;9.88;8.95;;;;;;;15.79;70.27;95329.94;5004888;28;20300;-66
2022/09/04 03:53:47;;;;;;;10.82;9.85;;;;;;;15.62;70.84;95332.69;5013777;28;20257;-67
2022/09/04 03:56:35;;;;;;;10.27;9.23;;;;;;;15.08;72.40;95335.28;5003450;28;20206;-62
2022/09/04 03:59:01;;;;;;;11.75;9.93;;;;;;;14.82;73.65;95340.81;5011367;28;20234;-67
2022/09/04 04:01:40;;;;;;;10.80;9.80;;;;;;;14.95;73.54;95346.41;5009425;28;20213;-67
2022/09/04 04:04:24;;;;;;;11.43;9.75;;;;;;;15.21;72.90;95348.81;5005874;28;20268;-62
2022/09/04 04:07:22;;;;;;;10.43;9.43;;;;;;;14.98;73.30;95342.59;5007748;28;20830;-69
2022/09/04 04:10:20;;;;;;;10.73;9.52;;;;;;;15.74;70.50;95351.69;4948003;28;20228;-67
2022/09/04 04:13:18;;;;;;;11.48;10.38;;;;;;;15.75;70.12;95361.31;4873630;29;21002;-63
2022/09/04 04:15:49;;;;;;;12.05;10.95;;;;;;;15.78;70.01;95378.69;4892250;29;20211;-67
2022/09/04 04:18:52;;;;;;;11.73;10.73;;;;;;;15.71;70.35;95380.38;4877321;29;20215;-63
2022/09/04 04:21:54;;;;;;;12.32;10.70;;;;;;;15.81;70.07;95379.16;4890997;29;20238;-67
2022/09/04 04:24:46;;;;;;;11.77;10.68;;;;;;;15.74;70.07;95380.84;4874235;29;20734;-68
2022/09/04 04:27:27;;;;;;;13.30;12.10;;;;;;;15.71;70.16;95393.63;4830796;29;20271;-69
2022/09/04 04:30:16;;;;;;;12.23;11.15;;;;;;;15.69;70.33;95382.38;4835047;29;20224;-67
2022/09/04 04:32:47;;;;;;;14.32;12.68;;;;;;;15.87;69.99;95389.06;4814433;29;20722;-67
2022/09/04 04:35:15;;;;;;;14.18;12.65;;;;;;;15.77;70.33;95391.13;4827918;29;20220;-66
2022/09/04 04:38:18;;;;;;;14.07;12.77;;;;;;;15.85;70.56;95404.34;4832965;29;20732;-68
2022/09/04 04:41:02;;;;;;;14.00;12.65;;;;;;;15.82;70.19;95404.69;4833065;29;20232;-67
2022/09/04 04:43:39;;;;;;;14.18;12.27;;;;;;;15.77;70.68;95401.72;4830576;29;20311;-67
2022/09/04 04:46:44;;;;;;;13.52;12.18;;;;;;;15.74;70.63;95387.97;4835805;29;20294;-65
2022/09/04 04:49:27;;;;;;;17.77;12.02;;;;;;;15.72;71.02;95390.00;4833020;29;20344;-62
2022/09/04 04:52:07;;;;;;;16.33;12.43;;;;;;;15.71;70.58;95391.81;4836708;29;20259;-67
2022/09/04 04:54:55;;;;;;;12.20;11.10;;;;;;;15.48;71.42;95404.16;4854394;29;20227;-68
2022/09/04 04:57:43;;;;;;;12.23;11.10;;;;;;;15.55;71.68;95411.22;4836710;29;20220;-68
2022/09/04 05:00:38;;;;;;;13.65;12.45;;;;;;;15.74;70.87;95417.13;4852103;29;20298;-68
2022/09/04 05:03:31;;;;;;;13.13;12.02;;;;;;;15.74;71.15;95423.25;4818112;29;20717;-67
2022/09/04 05:06:35;;;;;;;13.73;12.52;;;;;;;15.75;71.18;95410.84;4912179;29;20225;-67
2022/09/04 05:09:11;;;;;;;13.85;12.43;;;;;;;15.93;70.52;95405.28;4925575;29;20209;-68
2022/09/04 05:11:44;;;;;;;14.23;12.85;;;;;;;16.21;69.43;95393.16;4912253;29;20216;-63
2022/09/04 05:14:37;;;;;;;14.90;13.35;;;;;;;16.32;68.56;95387.41;4910883;29;20220;-67
2022/09/04 05:17:11;;;;;;;14.45;13.05;;;;;;;15.98;69.94;95392.31;4910712;29;20210;-66
2022/09/04 05:20:16;;;;;;;13.90;12.60;;;;;;;15.98;70.14;95398.44;4910649;29;20225;-67
2022/09/04 05:22:49;;;;;;;13.73;12.43;;;;;;;16.04;70.30;95397.75;4911295;29;20240;-68
2022/09/04 05:25:36;;;;;;;13.45;12.23;;;;;;;15.68;71.85;95401.91;4915093;29;20265;-66
2022/09/04 05:28:11;;;;;;;14.48;12.98;;;;;;;15.44;73.25;95407.13;4929984;29;20213;-66
2022/09/04 05:30:49;;;;;;;14.07;12.77;;;;;;;16.00;71.53;95416.84;4931502;28;20253;-67
2022/09/04 05:33:22;;;;;;;13.02;11.77;;;;;;;16.12;70.42;95404.84;4946123;28;20230;-62
2022/09/04 05:36:13;;;;;;;14.02;12.65;;;;;;;16.30;69.95;95402.72;4931608;28;20212;-67
2022/09/04 05:38:46;;;;;;;13.77;12.40;;;;;;;16.24;69.79;95397.28;4908921;29;20317;-66
2022/09/04 05:41:35;;;;;;;13.88;12.57;;;;;;;16.07;70.99;95408.00;4951219;28;20216;-66
2022/09/04 05:44:42;;;;;;;13.35;12.15;;;;;;;16.24;70.54;95414.00;4964844;28;20756;-67
2022/09/04 05:47:16;;;;;;;14.10;12.80;;;;;;;16.43;70.08;95417.19;4942701;28;20212;-66
2022/09/04 05:50:09;;;;;;;13.55;12.32;;;;;;;16.52;69.73;95408.19;4947019;28;20413;-65
2022/09/04 05:53:19;;;;;;;14.07;12.75;;;;;;;16.67;69.25;95408.19;4947283;28;20220;-65
2022/09/04 05:56:09;;;;;;;14.98;13.57;;;;;;;16.66;68.76;95407.38;4892060;29;20219;-69
2022/09/04 05:58:53;;;;;;;14.15;12.85;;;;;;;16.83;68.42;95408.06;4878726;29;20228;-66
2022/09/04 06:01:53;;;;;;;14.23;12.88;;;;;;;16.98;68.04;95406.28;4876192;29;20210;-65
2022/09/04 06:04:36;;;;;;;12.98;11.75;;;;;;;17.07;67.51;95393.72;4879382;29;20243;-62
2022/09/04 06:07:15;;;;;;;14.90;13.40;;;;;;;17.04;67.38;95379.97;4893393;29;20243;-61
2022/09/04 06:10:05;;;;;;;14.60;13.23;;;;;;;17.02;67.66;95374.84;4871965;29;20246;-66
2022/09/04 06:12:58;;;;;;;14.93;13.45;;;;;;;17.07;67.52;95377.78;4878585;29;20224;-66
2022/09/04 06:15:43;;;;;;;14.85;12.70;;;;;;;17.05;67.60;95377.13;4895827;29;20306;-66
2022/09/04 06:18:52;;;;;;;14.68;13.30;;;;;;;17.21;66.89;95378.78;4910368;29;20221;-64
2022/09/04 06:21:48;;;;;;;15.25;13.73;;;;;;;17.41;66.25;95381.72;4897593;29;20242;-63
2022/09/04 06:24:41;;;;;;;14.63;13.32;;;;;;;17.15;67.40;95388.31;4916332;28;20216;-67
2022/09/04 06:27:42;;;;;;;16.00;14.48;;;;;;;17.25;66.86;95387.22;4933569;29;20236;-67
2022/09/04 06:30:07;;;;;;;15.00;13.73;;;;;;;17.29;67.45;95389.31;4933728;29;20221;-68
2022/09/04 06:32:57;;;;;;;17.10;13.70;;;;;;;17.51;66.55;95384.91;4943586;28;20248;-69
2022/09/04 06:35:31;;;;;;;16.25;14.68;;;;;;;17.43;66.54;95379.69;4944865;28;20220;-66
2022/09/04 06:38:30;;;;;;;15.88;14.38;;;;;;;17.42;66.75;95380.69;4945939;29;20210;-68
2022/09/04 06:41:04;;;;;;;15.88;13.30;;;;;;;17.26;67.14;95383.56;4944042;28;20368;-67
2022/09/04 06:43:40;;;;;;;15.95;14.27;;;;;;;17.73;66.10;95377.00;4946184;28;20247;-65
2022/09/04 06:46:37;;;;;;;17.27;15.68;;;;;;;18.08;65.12;95381.50;4946194;28;20295;-70
2022/09/04 06:49:28;;;;;;;18.25;16.33;;;;;;;17.71;66.43;95379.00;4942626;29;20344;-68
2022/09/04 06:52:24;;;;;;;17.75;16.23;;;;;;;17.96;65.80;95380.34;4944531;28;20229;-66
2022/09/04 06:55:07;;;;;;;17.83;15.88;;;;;;;17.97;65.81;95395.28;4939970;28;20243;-66
2022/09/04 06:58:01;;;;;;;17.77;16.13;;;;;;;17.93;66.28;95388.69;4932297;28;20213;-67
2022/09/04 07:00:35;;;;;;;17.45;15.70;;;;;;;18.13;65.30;95386.25;4947842;28;20220;-66
2022/09/04 07:03:36;;;;;;;16.80;15.10;;;;;;;18.29;64.86;95382.50;4934706;28;20209;-65
2022/09/04 07:06:15;;;;;;;15.00;13.70;;;;;;;18.27;64.33;95380.03;4910859;29;20244;-71
2022/09/04 07:08:59;;;;;;;16.20;14.50;;;;;;;18.25;64.17;95381.22;4929867;29;20553;-68
2022/09/04 07:11:40;;;;;;;15.80;14.30;;;;;;;18.40;63.97;95378.50;4913529;29;20316;-66
2022/09/04 07:14:40;;;;;;;15.55;14.10;;;;;;;18.51;63.59;95375.34;4927224;29;20265;-68
2022/09/04 07:17:09;;;;;;;15.45;13.90;;;;;;;18.54;63.48;95379.44;4929351;29;20221;-63
2022/09/04 07:19:56;;;;;;;13.52;12.40;;;;;;;18.60;63.37;95381.34;4912331;29;20308;-68
2022/09/04 07:22:53;;;;;;;13.60;12.40;;;;;;;18.68;63.04;95386.53;4924100;28;21070;-69
2022/09/04 07:25:29;;;;;;;12.70;11.45;;;;;;;18.80;62.46;95394.84;4949924;28;20232;-70
2022/09/04 07:28:13;;;;;;;12.20;11.02;;;;;;;18.81;62.96;95384.00;4949849;28;20218;-69
2022/09/04 07:31:02;;;;;;;13.63;12.27;;;;;;;19.02;62.13;95376.97;4935474;28;20255;-63
2022/09/04 07:33:49;;;;;;;11.35;10.15;;;;;;;19.09;61.53;95377.84;4946384;28;20219;-69
2022/09/04 07:36:56;;;;;;;11.20;10.27;;;;;;;19.04;61.51;95386.41;4931020;28;20627;-67
2022/09/04 07:39:29;;;;;;;11.88;10.88;;;;;;;19.00;61.70;95379.00;4911198;29;20373;-67
2022/09/04 07:41:59;;;;;;;11.32;10.23;;;;;;;19.06;62.14;95391.53;4905110;28;20291;-69
2022/09/04 07:45:00;;;;;;;12.00;10.88;;;;;;;19.22;61.62;95409.91;4946895;28;21101;-63
2022/09/04 07:47:37;;;;;;;12.02;10.88;;;;;;;19.22;61.65;95401.06;4901165;29;20245;-69
2022/09/04 07:50:10;;;;;;;11.88;10.75;;;;;;;19.27;61.44;95407.47;4897981;29;20224;-63
2022/09/04 07:52:57;;;;;;;10.55;9.65;;;;;;;19.31;61.10;95408.72;4896147;29;20587;-68
2022/09/04 07:55:30;;;;;;;10.80;9.90;;;;;;;19.36;60.79;95403.63;4914133;29;20256;-68
2022/09/04 07:58:18;;;;;;;11.82;10.73;;;;;;;19.30;61.22;95409.75;4894763;29;20214;-68
2022/09/04 08:00:46;;;;;;;11.05;10.05;;;;;;;19.42;60.97;95418.00;4896562;29;20460;-66
2022/09/04 08:03:31;;;;;;;12.68;11.48;;;;;;;19.53;60.57;95404.13;4897667;29;20230;-63
2022/09/04 08:06:12;;;;;;;11.05;10.05;;;;;;;19.50;60.97;95409.03;4893100;29;20225;-67
2022/09/04 08:09:00;;;;;;;10.98;9.95;;;;;;;19.46;61.09;95413.94;4911475;29;20229;-65
2022/09/04 08:11:37;;;;;;;11.07;10.07;;;;;;;19.41;61.17;95424.38;4912088;29;20221;-63
2022/09/04 08:14:20;;;;;;;12.40;10.90;;;;;;;19.58;61.10;95422.19;4910630;29;20214;-65
2022/09/04 08:17:05;;;;;;;18.08;11.60;;;;;;;19.75;60.29;95426.22;4956482;28;20220;-62
2022/09/04 08:19:54;;;;;;;12.77;11.63;;;;;;;19.54;60.77;95424.44;4949645;28;20246;-68
2022/09/04 08:22:42;;;;;;;11.00;10.00;;;;;;;19.59;60.42;95416.69;4947634;28;20275;-66
2022/09/04 08:25:32;;;;;;;10.98;9.82;;;;;;;19.72;59.72;95426.59;4996982;28;20230;-69
2022/09/04 08:28:07;;;;;;;11.65;10.65;;;;;;;19.87;59.25;95422.97;5004119;28;20209;-67
2022/09/04 08:30:46;;;;;;;11.55;10.55;;;;;;;19.91;59.55;95429.56;5007944;28;20206;-67
2022/09/04 08:33:40;;;;;;;11.98;10.07;;;;;;;19.99;59.03;95418.69;5003792;28;20237;-66
2022/09/04 08:36:46;;;;;;;11.77;10.77;;;;;;;20.13;58.72;95411.56;5021399;28;20207;-71
2022/09/04 08:39:18;;;;;;;11.45;10.35;;;;;;;20.23;58.46;95410.16;4943343;28;20219;-65
2022/09/04 08:42:06;;;;;;;11.88;10.70;;;;;;;20.28;57.79;95407.69;4954220;28;20242;-64
2022/09/04 08:44:59;;;;;;;11.93;10.70;;;;;;;20.35;58.11;95412.25;4952111;28;20212;-68
2022/09/04 08:47:56;;;;;;;11.75;10.75;;;;;;;20.15;57.18;95404.97;4953024;28;20213;-62
2022/09/04 08:50:33;;;;;;;10.90;9.90;;;;;;;20.31;57.19;95413.66;4967751;28;20294;-67
2022/09/04 08:53:25;;;;;;;10.48;9.48;;;;;;;20.21;56.87;95403.38;4948895;28;20211;-67
2022/09/04 08:55:59;;;;;;;8.55;7.75;;;;;;;20.14;55.62;95403.34;4929473;28;20299;-66
2022/09/04 08:58:25;;;;;;;9.48;8.57;;;;;;;20.25;56.26;95396.59;4936549;28;20286;-66
2022/09/04 09:01:05;;;;;;;9.05;8.20;;;;;;;20.41;55.17;95398.06;4962358;28;20310;-66
2022/09/04 09:03:52;;;;;;;8.68;7.95;;;;;;;20.53;54.60;95395.59;4944460;28;20355;-66
2022/09/04 09:06:45;;;;;;;7.88;7.13;;;;;;;20.63;54.08;95388.03;4943252;28;20224;-66
2022/09/04 09:09:23;;;;;;;7.30;6.68;;;;;;;20.60;52.65;95391.13;4961234;28;20276;-66
2022/09/04 09:11:51;;;;;;;5.90;5.30;;;;;;;20.90;50.25;95396.88;4944838;28;20231;-65
2022/09/04 09:14:30;;;;;;;5.80;5.40;;;;;;;21.03;49.27;95407.56;4945205;28;20248;-66
2022/09/04 09:17:24;;;;;;;6.53;6.03;;;;;;;21.18;49.46;95406.53;4998060;28;20235;-66
2022/09/04 09:20:04;;;;;;;5.57;5.07;;;;;;;21.41;48.59;95398.91;4997822;28;20213;-66
2022/09/04 09:23:03;;;;;;;6.30;5.80;;;;;;;21.34;48.14;95393.53;5012891;28;21141;-66
2022/09/04 09:25:43;;;;;;;6.18;5.68;;;;;;;21.55;48.95;95384.44;4995045;28;20228;-66
2022/09/04 09:28:59;;;;;;;7.18;6.47;;;;;;;21.61;50.19;95384.63;4999267;28;20203;-66
2022/09/04 09:31:49;;;;;;;6.85;6.22;;;;;;;21.73;49.13;95383.75;4959793;28;20319;-67
2022/09/04 09:34:27;;;;;;;7.55;6.85;;;;;;;21.82;48.83;95383.53;4944900;28;20230;-67
2022/09/04 09:37:31;;;;;;;6.35;5.80;;;;;;;22.08;48.37;95382.56;4976091;28;20246;-62
2022/09/04 09:40:30;;;;;;;6.18;5.68;;;;;;;22.25;48.01;95383.72;4958701;28;20353;-66
2022/09/04 09:43:28;;;;;;;6.25;5.75;;;;;;;22.45;47.78;95373.72;4960726;28;20246;-65
2022/09/04 09:46:15;;;;;;;6.35;5.85;;;;;;;22.70;46.09;95374.78;4882326;29;21023;-66
2022/09/04 09:49:04;;;;;;;7.47;6.35;;;;;;;22.50;46.78;95381.09;4879592;29;20237;-65
2022/09/04 09:51:47;;;;;;;6.65;6.10;;;;;;;22.49;46.26;95373.28;4880547;29;20233;-67
2022/09/04 09:54:36;;;;;;;6.47;5.93;;;;;;;22.80;45.85;95375.06;4880151;29;20329;-66
2022/09/04 09:57:20;;;;;;;6.30;5.80;;;;;;;22.92;46.00;95367.16;4882780;29;20264;-68
2022/09/04 10:00:20;;;;;;;6.50;6.00;;;;;;;23.15;45.68;95356.66;4881834;29;21079;-66
2022/09/04 10:03:00;;;;;;;6.80;6.20;;;;;;;23.44;45.88;95347.06;4905697;29;20229;-69
2022/09/04 10:05:44;;;;;;;6.00;5.60;;;;;;;23.67;44.61;95348.22;4899129;29;20230;-62
2022/09/04 10:08:28;;;;;;;6.35;5.75;;;;;;;23.20;44.07;95362.19;4912591;29;20221;-63
2022/09/04 10:11:13;;;;;;;6.47;5.97;;;;;;;23.17;44.96;95359.09;4911409;29;20316;-62
2022/09/04 10:14:00;;;;;;;6.15;5.47;;;;;;;23.58;45.09;95365.69;4910890;29;20212;-66
2022/09/04 10:16:44;;;;;;;6.63;6.07;;;;;;;23.75;44.26;95356.00;4923413;29;20225;-63
2022/09/04 10:19:28;;;;;;;6.65;6.05;;;;;;;23.99;43.27;95348.88;4923068;29;20348;-68
2022/09/04 10:22:21;;;;;;;6.80;6.22;;;;;;;23.90;42.36;95343.00;4920110;28;20255;-66
2022/09/04 10:25:18;;;;;;;6.60;6.07;;;;;;;24.03;42.49;95335.78;5012286;28;20215;-64
2022/09/04 10:27:58;;;;;;;6.55;5.97;;;;;;;24.19;43.41;95333.31;5003561;28;20227;-61
2022/09/04 10:30:42;;;;;;;6.57;5.90;;;;;;;24.25;42.30;95336.13;5009032;28;20242;-66
2022/09/04 10:33:50;;;;;;;5.95;5.45;;;;;;;24.58;42.43;95333.75;5006791;28;20310;-65
2022/09/04 10:36:38;;;;;;;6.72;6.22;;;;;;;24.78;42.80;95337.97;4950846;28;20709;-68
2022/09/04 10:42:24;;;;;;;5.68;5.18;;;;;;;24.94;41.09;95333.78;4966612;28;20252;-65
2022/09/04 10:45:10;;;;;;;6.00;5.60;;;;;;;25.09;41.07;95334.13;4947625;28;20243;-64
2022/09/04 10:47:43;;;;;;;6.43;5.93;;;;;;;25.40;40.52;95319.50;4892427;29;20243;-68
2022/09/04 10:50:12;;;;;;;6.38;5.88;;;;;;;25.47;40.50;95320.22;4889346;29;20230;-67
2022/09/04 10:52:47;;;;;;;5.78;5.38;;;;;;;25.68;40.33;95307.13;4899059;29;20233;-66
2022/09/04 10:55:22;;;;;;;6.10;5.50;;;;;;;25.88;38.94;95301.38;4880747;29;20242;-65
2022/09/04 10:58:09;;;;;;;5.85;5.10;;;;;;;25.70;39.82;95311.22;4894501;29;20226;-68
2022/09/04 11:01:12;;;;;;;5.97;5.57;;;;;;;25.67;39.28;95306.31;4897064;29;20241;-66
2022/09/04 11:03:52;;;;;;;6.50;5.65;;;;;;;25.52;39.81;95306.00;4878228;29;20424;-62
2022/09/04 11:06:51;;;;;;;6.70;6.13;;;;;;;25.92;38.68;95300.63;4878638;29;20241;-65
2022/09/04 11:09:37;;;;;;;5.78;5.28;;;;;;;25.93;39.30;95296.09;4895349;29;20231;-68
2022/09/04 11:12:53;;;;;;;5.88;5.30;;;;;;;26.42;38.91;95287.50;4880403;29;20321;-71
2022/09/04 11:15:21;;;;;;;6.25;5.65;;;;;;;26.70;38.46;95283.91;4893433;29;20249;-67
2022/09/04 11:18:32;;;;;;;5.90;5.40;;;;;;;26.04;37.65;95294.41;4897116;29;20609;-64
2022/09/04 11:21:21;;;;;;;5.40;5.00;;;;;;;26.21;37.94;95292.53;4845337;29;20240;-65
2022/09/04 11:24:08;;;;;;;5.90;5.30;;;;;;;26.32;38.09;95283.56;4847919;29;20234;-67
2022/09/04 11:26:35;;;;;;;5.72;5.20;;;;;;;26.00;37.75;95277.88;4892870;29;20314;-66
2022/09/04 11:29:21;;;;;;;6.63;6.03;;;;;;;26.38;36.97;95282.59;4893057;29;20238;-62
2022/09/04 11:31:59;;;;;;;5.65;5.10;;;;;;;26.81;36.64;95283.00;4891907;29;20226;-65
2022/09/04 11:35:01;;;;;;;5.93;5.03;;;;;;;27.18;35.91;95283.28;4892530;29;20218;-67
2022/09/04 11:37:45;;;;;;;5.25;4.57;;;;;;;27.70;35.15;95290.97;4893697;29;20588;-65
2022/09/04 11:40:48;;;;;;;4.93;4.43;;;;;;;28.11;34.72;95275.22;4895871;29;20231;-66
2022/09/04 11:43:19;;;;;;;4.72;4.40;;;;;;;28.86;34.02;95272.59;4895648;29;20256;-67
2022/09/04 11:46:19;;;;;;;5.30;4.80;;;;;;;28.97;32.41;95265.38;4875514;29;20230;-62
2022/09/04 11:49:09;;;;;;;5.22;4.72;;;;;;;28.71;33.22;95270.63;4895388;29;20234;-69
2022/09/04 11:51:59;;;;;;;4.93;4.53;;;;;;;28.97;32.87;95271.59;4906377;29;20254;-64
2022/09/04 11:54:36;;;;;;;5.15;4.78;;;;;;;28.84;32.44;95274.75;4894317;29;20241;-64
2022/09/04 11:57:20;;;;;;;5.20;4.70;;;;;;;28.53;33.67;95271.84;4933797;28;20254;-64
2022/09/04 12:00:16;;;;;;;5.10;4.70;;;;;;;28.03;33.47;95251.34;5001334;28;20314;-68
2022/09/04 12:03:26;;;;;;;5.38;4.93;;;;;;;27.60;34.46;95263.03;4985485;28;20370;-69
2022/09/04 12:06:22;;;;;;;4.68;4.22;;;;;;;28.08;34.19;95256.00;4963261;28;20682;-69
2022/09/04 12:09:05;;;;;;;5.18;4.68;;;;;;;28.83;32.27;95243.38;4957960;28;20701;-70
2022/09/04 12:11:59;;;;;;;4.70;4.30;;;;;;;28.66;32.02;95240.81;4959029;28;20299;-65
2022/09/04 12:15:07;;;;;;;4.50;4.10;;;;;;;29.26;32.31;95233.34;4955086;28;20244;-67
2022/09/04 12:17:39;;;;;;;5.85;4.13;;;;;;;29.24;30.75;95239.03;4947249;28;20216;-62
2022/09/04 12:20:22;;;;;;;4.30;3.97;;;;;;;30.03;30.07;95231.69;4945442;28;20652;-69
2022/09/04 12:23:16;;;;;;;4.13;3.83;;;;;;;30.28;30.25;95236.34;4955182;28;20263;-63
2022/09/04 12:26:20;;;;;;;4.65;4.13;;;;;;;30.47;29.27;95243.97;4955610;28;20369;-68
2022/09/04 12:28:49;;;;;;;4.47;4.18;;;;;;;29.70;30.85;95233.00;4941834;28;20268;-68
2022/09/04 12:31:20;;;;;;;4.35;4.05;;;;;;;30.05;29.67;95237.69;4961468;28;20205;-67
2022/09/04 12:34:04;;;;;;;4.97;4.53;;;;;;;29.99;29.54;95240.63;4957822;28;20295;-68
2022/09/04 12:36:51;;;;;;;4.20;3.90;;;;;;;29.50;29.74;95235.59;4957663;28;20251;-65
2022/09/04 12:39:47;;;;;;;4.65;4.25;;;;;;;29.50;30.36;95231.00;4943202;28;20233;-62
2022/09/04 12:42:40;;;;;;;4.57;4.15;;;;;;;28.80;31.21;95239.28;4971423;28;20227;-68
2022/09/04 12:45:21;;;;;;;4.22;3.92;;;;;;;29.08;30.75;95237.31;4986064;28;20223;-70
2022/09/04 12:48:13;;;;;;;4.10;3.80;;;;;;;28.69;31.49;95244.91;4989090;28;20346;-67
2022/09/04 12:50:44;;;;;;;4.28;3.88;;;;;;;28.61;31.51;95237.28;4964248;28;20282;-64
2022/09/04 12:53:24;;;;;;;5.78;4.40;;;;;;;28.07;33.21;95238.16;4947765;28;20561;-66
2022/09/04 12:56:02;;;;;;;4.53;4.13;;;;;;;27.80;33.58;95228.16;4948684;28;20216;-64